sensor_id;sensor_type;location;lat;lon;timestamp;P1;durP1;ratioP1;P2;durP2;ratioP2
3801;SDS011;1916;51.798;12.246;2023-01-23T00:01:20;23.30;;;14.00;;
3801;SDS011;1916;51.798;12.246;2023-01-23T00:03:25;25.83;;;14.97;;
3801;SDS011;1916;51.798;12.246;2023-01-23T00:05:27;25.23;;;14.23;;
3801;SDS011;1916;51.798;12.246;2023-01-23T00:07:29;24.67;;;14.13;;
3801;SDS011;1916;51.798;12.246;2023-01-23T00:09:31;24.23;;;14.43;;
3801;SDS011;1916;51.798;12.246;2023-01-23T00:11:33;29.23;;;14.87;;
3801;SDS011;1916;51.798;12.246;2023-01-23T00:13:35;23.37;;;14.40;;
3801;SDS011;1916;51.798;12.246;2023-01-23T00:15:38;22.30;;;12.77;;
3801;SDS011;1916;51.798;12.246;2023-01-23T00:17:40;24.00;;;14.77;;
3801;SDS011;1916;51.798;12.246;2023-01-23T00:19:43;23.90;;;14.50;;
3801;SDS011;1916;51.798;12.246;2023-01-23T00:21:45;19.77;;;12.83;;
3801;SDS011;1916;51.798;12.246;2023-01-23T00:23:48;22.33;;;13.10;;
3801;SDS011;1916;51.798;12.246;2023-01-23T00:25:54;21.80;;;13.53;;
3801;SDS011;1916;51.798;12.246;2023-01-23T00:27:56;26.50;;;15.47;;
3801;SDS011;1916;51.798;12.246;2023-01-23T00:29:58;29.27;;;16.77;;
3801;SDS011;1916;51.798;12.246;2023-01-23T00:32:00;34.37;;;17.13;;
3801;SDS011;1916;51.798;12.246;2023-01-23T00:34:04;32.00;;;18.37;;
3801;SDS011;1916;51.798;12.246;2023-01-23T00:36:08;29.43;;;16.50;;
3801;SDS011;1916;51.798;12.246;2023-01-23T00:38:11;25.60;;;15.00;;
3801;SDS011;1916;51.798;12.246;2023-01-23T00:40:13;21.10;;;14.27;;
3801;SDS011;1916;51.798;12.246;2023-01-23T00:42:15;23.23;;;14.07;;
3801;SDS011;1916;51.798;12.246;2023-01-23T00:44:17;21.87;;;14.23;;
3801;SDS011;1916;51.798;12.246;2023-01-23T00:46:19;20.40;;;12.27;;
3801;SDS011;1916;51.798;12.246;2023-01-23T00:48:22;18.20;;;11.80;;
3801;SDS011;1916;51.798;12.246;2023-01-23T00:50:24;19.17;;;12.23;;
3801;SDS011;1916;51.798;12.246;2023-01-23T00:52:26;20.70;;;12.67;;
3801;SDS011;1916;51.798;12.246;2023-01-23T00:54:29;20.27;;;12.47;;
3801;SDS011;1916;51.798;12.246;2023-01-23T00:56:31;22.50;;;13.83;;
3801;SDS011;1916;51.798;12.246;2023-01-23T00:58:33;22.23;;;12.07;;
3801;SDS011;1916;51.798;12.246;2023-01-23T01:00:36;18.20;;;12.40;;
3801;SDS011;1916;51.798;12.246;2023-01-23T01:02:39;17.97;;;12.17;;
3801;SDS011;1916;51.798;12.246;2023-01-23T01:04:41;19.47;;;13.13;;
3801;SDS011;1916;51.798;12.246;2023-01-23T01:06:43;22.40;;;13.77;;
3801;SDS011;1916;51.798;12.246;2023-01-23T01:08:45;19.37;;;11.90;;
3801;SDS011;1916;51.798;12.246;2023-01-23T01:10:47;19.13;;;13.00;;
3801;SDS011;1916;51.798;12.246;2023-01-23T01:12:50;20.03;;;12.67;;
3801;SDS011;1916;51.798;12.246;2023-01-23T01:14:55;22.87;;;13.07;;
3801;SDS011;1916;51.798;12.246;2023-01-23T01:16:57;25.50;;;14.80;;
3801;SDS011;1916;51.798;12.246;2023-01-23T01:18:59;22.80;;;13.27;;
3801;SDS011;1916;51.798;12.246;2023-01-23T01:21:04;18.53;;;11.67;;
3801;SDS011;1916;51.798;12.246;2023-01-23T01:23:08;23.97;;;13.67;;
3801;SDS011;1916;51.798;12.246;2023-01-23T01:25:10;23.77;;;14.23;;
3801;SDS011;1916;51.798;12.246;2023-01-23T01:27:12;24.60;;;14.10;;
3801;SDS011;1916;51.798;12.246;2023-01-23T01:29:14;21.37;;;12.90;;
3801;SDS011;1916;51.798;12.246;2023-01-23T01:31:17;20.97;;;12.67;;
3801;SDS011;1916;51.798;12.246;2023-01-23T01:33:19;23.47;;;14.20;;
3801;SDS011;1916;51.798;12.246;2023-01-23T01:35:22;24.80;;;15.07;;
3801;SDS011;1916;51.798;12.246;2023-01-23T01:37:25;22.60;;;14.00;;
3801;SDS011;1916;51.798;12.246;2023-01-23T01:39:27;20.77;;;13.03;;
3801;SDS011;1916;51.798;12.246;2023-01-23T01:41:29;19.73;;;13.00;;
3801;SDS011;1916;51.798;12.246;2023-01-23T01:43:31;22.90;;;13.73;;
3801;SDS011;1916;51.798;12.246;2023-01-23T01:48:23;24.40;;;13.37;;
3801;SDS011;1916;51.798;12.246;2023-01-23T01:50:27;22.50;;;13.27;;
3801;SDS011;1916;51.798;12.246;2023-01-23T01:52:29;25.10;;;14.93;;
3801;SDS011;1916;51.798;12.246;2023-01-23T01:54:34;23.13;;;14.90;;
3801;SDS011;1916;51.798;12.246;2023-01-23T01:56:38;29.73;;;15.00;;
3801;SDS011;1916;51.798;12.246;2023-01-23T01:58:45;22.27;;;13.37;;
3801;SDS011;1916;51.798;12.246;2023-01-23T02:00:48;25.10;;;14.10;;
3801;SDS011;1916;51.798;12.246;2023-01-23T02:02:52;25.57;;;15.13;;
3801;SDS011;1916;51.798;12.246;2023-01-23T02:05:02;22.70;;;14.07;;
3801;SDS011;1916;51.798;12.246;2023-01-23T02:07:07;25.40;;;14.70;;
3801;SDS011;1916;51.798;12.246;2023-01-23T02:09:37;24.23;;;13.63;;
3801;SDS011;1916;51.798;12.246;2023-01-23T02:11:39;26.43;;;15.53;;
3801;SDS011;1916;51.798;12.246;2023-01-23T02:13:41;25.60;;;14.37;;
3801;SDS011;1916;51.798;12.246;2023-01-23T02:15:44;22.93;;;13.83;;
3801;SDS011;1916;51.798;12.246;2023-01-23T02:17:46;23.87;;;13.87;;
3801;SDS011;1916;51.798;12.246;2023-01-23T02:20:02;24.17;;;13.60;;
3801;SDS011;1916;51.798;12.246;2023-01-23T02:22:26;24.63;;;14.50;;
3801;SDS011;1916;51.798;12.246;2023-01-23T02:24:36;25.57;;;14.40;;
3801;SDS011;1916;51.798;12.246;2023-01-23T02:26:45;25.77;;;14.43;;
3801;SDS011;1916;51.798;12.246;2023-01-23T02:28:48;27.97;;;15.10;;
3801;SDS011;1916;51.798;12.246;2023-01-23T02:31:00;24.57;;;13.70;;
3801;SDS011;1916;51.798;12.246;2023-01-23T02:33:10;21.23;;;13.47;;
3801;SDS011;1916;51.798;12.246;2023-01-23T02:35:23;27.80;;;15.00;;
3801;SDS011;1916;51.798;12.246;2023-01-23T02:37:32;28.03;;;15.47;;
3801;SDS011;1916;51.798;12.246;2023-01-23T02:39:36;26.13;;;15.80;;
3801;SDS011;1916;51.798;12.246;2023-01-23T02:41:43;28.77;;;16.37;;
3801;SDS011;1916;51.798;12.246;2023-01-23T02:43:47;29.37;;;17.03;;
3801;SDS011;1916;51.798;12.246;2023-01-23T02:45:49;25.13;;;13.90;;
3801;SDS011;1916;51.798;12.246;2023-01-23T02:47:52;26.57;;;15.77;;
3801;SDS011;1916;51.798;12.246;2023-01-23T02:49:55;26.90;;;16.33;;
3801;SDS011;1916;51.798;12.246;2023-01-23T02:51:57;26.27;;;14.87;;
3801;SDS011;1916;51.798;12.246;2023-01-23T02:53:59;25.47;;;15.27;;
3801;SDS011;1916;51.798;12.246;2023-01-23T02:56:01;22.53;;;13.87;;
3801;SDS011;1916;51.798;12.246;2023-01-23T02:58:03;27.73;;;15.40;;
3801;SDS011;1916;51.798;12.246;2023-01-23T03:00:24;29.17;;;15.90;;
3801;SDS011;1916;51.798;12.246;2023-01-23T03:02:27;26.00;;;16.23;;
3801;SDS011;1916;51.798;12.246;2023-01-23T03:04:29;29.30;;;15.93;;
3801;SDS011;1916;51.798;12.246;2023-01-23T03:06:33;31.80;;;17.87;;
3801;SDS011;1916;51.798;12.246;2023-01-23T03:08:41;29.43;;;14.90;;
3801;SDS011;1916;51.798;12.246;2023-01-23T03:10:48;30.00;;;15.80;;
3801;SDS011;1916;51.798;12.246;2023-01-23T03:12:51;27.47;;;17.07;;
3801;SDS011;1916;51.798;12.246;2023-01-23T03:14:53;31.40;;;17.07;;
3801;SDS011;1916;51.798;12.246;2023-01-23T03:16:56;28.37;;;15.53;;
3801;SDS011;1916;51.798;12.246;2023-01-23T03:19:04;35.07;;;17.47;;
3801;SDS011;1916;51.798;12.246;2023-01-23T03:21:09;28.93;;;16.10;;
3801;SDS011;1916;51.798;12.246;2023-01-23T03:23:14;31.43;;;17.37;;
3801;SDS011;1916;51.798;12.246;2023-01-23T03:25:17;32.60;;;17.33;;
3801;SDS011;1916;51.798;12.246;2023-01-23T03:27:20;38.00;;;17.43;;
3801;SDS011;1916;51.798;12.246;2023-01-23T03:29:26;31.10;;;16.70;;
3801;SDS011;1916;51.798;12.246;2023-01-23T03:31:48;31.90;;;17.10;;
3801;SDS011;1916;51.798;12.246;2023-01-23T03:33:50;30.13;;;16.43;;
3801;SDS011;1916;51.798;12.246;2023-01-23T03:35:54;30.80;;;16.27;;
3801;SDS011;1916;51.798;12.246;2023-01-23T03:37:56;31.47;;;16.97;;
3801;SDS011;1916;51.798;12.246;2023-01-23T03:39:58;40.07;;;18.10;;
3801;SDS011;1916;51.798;12.246;2023-01-23T03:42:20;37.23;;;17.60;;
3801;SDS011;1916;51.798;12.246;2023-01-23T03:44:25;33.03;;;17.07;;
3801;SDS011;1916;51.798;12.246;2023-01-23T03:46:27;33.23;;;16.83;;
3801;SDS011;1916;51.798;12.246;2023-01-23T03:48:29;33.30;;;16.70;;
3801;SDS011;1916;51.798;12.246;2023-01-23T03:50:31;38.97;;;19.70;;
3801;SDS011;1916;51.798;12.246;2023-01-23T03:52:33;33.73;;;16.70;;
3801;SDS011;1916;51.798;12.246;2023-01-23T03:54:35;34.07;;;17.47;;
3801;SDS011;1916;51.798;12.246;2023-01-23T03:56:40;34.03;;;16.87;;
3801;SDS011;1916;51.798;12.246;2023-01-23T03:58:56;38.47;;;17.63;;
3801;SDS011;1916;51.798;12.246;2023-01-23T04:00:59;32.57;;;17.70;;
3801;SDS011;1916;51.798;12.246;2023-01-23T04:03:07;34.93;;;17.47;;
3801;SDS011;1916;51.798;12.246;2023-01-23T04:05:11;35.43;;;17.80;;
3801;SDS011;1916;51.798;12.246;2023-01-23T04:07:13;39.20;;;20.23;;
3801;SDS011;1916;51.798;12.246;2023-01-23T04:09:17;33.37;;;16.30;;
3801;SDS011;1916;51.798;12.246;2023-01-23T04:11:19;32.30;;;16.57;;
3801;SDS011;1916;51.798;12.246;2023-01-23T04:13:21;34.57;;;17.57;;
3801;SDS011;1916;51.798;12.246;2023-01-23T04:15:23;38.83;;;18.70;;
3801;SDS011;1916;51.798;12.246;2023-01-23T04:17:28;38.30;;;18.97;;
3801;SDS011;1916;51.798;12.246;2023-01-23T04:19:31;34.30;;;19.17;;
3801;SDS011;1916;51.798;12.246;2023-01-23T04:21:33;33.47;;;17.27;;
3801;SDS011;1916;51.798;12.246;2023-01-23T04:23:35;35.23;;;18.20;;
3801;SDS011;1916;51.798;12.246;2023-01-23T04:25:37;35.90;;;18.77;;
3801;SDS011;1916;51.798;12.246;2023-01-23T04:27:45;37.50;;;18.00;;
3801;SDS011;1916;51.798;12.246;2023-01-23T04:29:47;40.13;;;18.73;;
3801;SDS011;1916;51.798;12.246;2023-01-23T04:31:49;35.00;;;18.93;;
3801;SDS011;1916;51.798;12.246;2023-01-23T04:33:54;37.60;;;18.50;;
3801;SDS011;1916;51.798;12.246;2023-01-23T04:35:59;36.10;;;19.80;;
3801;SDS011;1916;51.798;12.246;2023-01-23T04:38:03;35.27;;;19.13;;
3801;SDS011;1916;51.798;12.246;2023-01-23T04:40:07;52.00;;;22.90;;
3801;SDS011;1916;51.798;12.246;2023-01-23T04:42:19;51.30;;;22.57;;
3801;SDS011;1916;51.798;12.246;2023-01-23T04:44:34;46.17;;;21.43;;
3801;SDS011;1916;51.798;12.246;2023-01-23T04:46:54;43.60;;;19.97;;
3801;SDS011;1916;51.798;12.246;2023-01-23T04:48:57;46.70;;;23.73;;
3801;SDS011;1916;51.798;12.246;2023-01-23T04:51:01;51.47;;;22.23;;
3801;SDS011;1916;51.798;12.246;2023-01-23T04:53:04;47.10;;;22.23;;
3801;SDS011;1916;51.798;12.246;2023-01-23T04:55:07;37.67;;;19.13;;
3801;SDS011;1916;51.798;12.246;2023-01-23T04:57:10;42.43;;;19.23;;
3801;SDS011;1916;51.798;12.246;2023-01-23T04:59:13;40.40;;;20.20;;
3801;SDS011;1916;51.798;12.246;2023-01-23T05:01:18;45.97;;;19.20;;
3801;SDS011;1916;51.798;12.246;2023-01-23T05:03:25;40.33;;;19.80;;
3801;SDS011;1916;51.798;12.246;2023-01-23T05:05:28;47.13;;;18.83;;
3801;SDS011;1916;51.798;12.246;2023-01-23T05:07:33;42.03;;;18.77;;
3801;SDS011;1916;51.798;12.246;2023-01-23T05:09:41;46.53;;;20.43;;
3801;SDS011;1916;51.798;12.246;2023-01-23T05:11:47;41.07;;;18.80;;
3801;SDS011;1916;51.798;12.246;2023-01-23T05:13:50;46.27;;;19.80;;
3801;SDS011;1916;51.798;12.246;2023-01-23T05:15:55;45.17;;;19.77;;
3801;SDS011;1916;51.798;12.246;2023-01-23T05:17:58;36.13;;;17.93;;
3801;SDS011;1916;51.798;12.246;2023-01-23T05:20:00;35.30;;;17.67;;
3801;SDS011;1916;51.798;12.246;2023-01-23T05:22:02;44.23;;;18.57;;
3801;SDS011;1916;51.798;12.246;2023-01-23T05:24:05;39.13;;;17.17;;
3801;SDS011;1916;51.798;12.246;2023-01-23T05:26:07;35.87;;;18.10;;
3801;SDS011;1916;51.798;12.246;2023-01-23T05:28:09;37.67;;;18.93;;
3801;SDS011;1916;51.798;12.246;2023-01-23T05:30:19;38.73;;;18.30;;
3801;SDS011;1916;51.798;12.246;2023-01-23T05:32:25;37.93;;;17.70;;
3801;SDS011;1916;51.798;12.246;2023-01-23T05:34:31;34.17;;;18.80;;
3801;SDS011;1916;51.798;12.246;2023-01-23T05:36:36;37.40;;;18.93;;
3801;SDS011;1916;51.798;12.246;2023-01-23T05:38:39;35.63;;;17.77;;
3801;SDS011;1916;51.798;12.246;2023-01-23T05:40:42;47.70;;;20.53;;
3801;SDS011;1916;51.798;12.246;2023-01-23T05:43:03;34.20;;;17.67;;
3801;SDS011;1916;51.798;12.246;2023-01-23T05:45:31;44.97;;;18.87;;
3801;SDS011;1916;51.798;12.246;2023-01-23T05:47:37;42.90;;;17.97;;
3801;SDS011;1916;51.798;12.246;2023-01-23T05:49:40;38.33;;;19.20;;
3801;SDS011;1916;51.798;12.246;2023-01-23T05:51:42;46.63;;;19.70;;
3801;SDS011;1916;51.798;12.246;2023-01-23T05:53:46;41.17;;;18.00;;
3801;SDS011;1916;51.798;12.246;2023-01-23T05:55:48;44.53;;;19.83;;
3801;SDS011;1916;51.798;12.246;2023-01-23T05:57:51;39.30;;;20.10;;
3801;SDS011;1916;51.798;12.246;2023-01-23T06:00:13;40.43;;;19.60;;
3801;SDS011;1916;51.798;12.246;2023-01-23T06:02:15;42.20;;;18.50;;
3801;SDS011;1916;51.798;12.246;2023-01-23T06:04:47;39.47;;;21.13;;
3801;SDS011;1916;51.798;12.246;2023-01-23T06:06:59;51.90;;;21.07;;
3801;SDS011;1916;51.798;12.246;2023-01-23T06:09:02;38.37;;;17.47;;
3801;SDS011;1916;51.798;12.246;2023-01-23T06:11:05;40.50;;;18.93;;
3801;SDS011;1916;51.798;12.246;2023-01-23T06:13:08;39.80;;;18.27;;
3801;SDS011;1916;51.798;12.246;2023-01-23T06:15:10;40.17;;;19.87;;
3801;SDS011;1916;51.798;12.246;2023-01-23T06:17:13;46.53;;;20.90;;
3801;SDS011;1916;51.798;12.246;2023-01-23T06:19:16;43.63;;;18.80;;
3801;SDS011;1916;51.798;12.246;2023-01-23T06:21:19;38.33;;;17.80;;
3801;SDS011;1916;51.798;12.246;2023-01-23T06:23:21;41.13;;;18.30;;
3801;SDS011;1916;51.798;12.246;2023-01-23T06:25:23;35.77;;;18.10;;
3801;SDS011;1916;51.798;12.246;2023-01-23T06:27:27;32.73;;;18.40;;
3801;SDS011;1916;51.798;12.246;2023-01-23T06:29:29;43.60;;;18.40;;
3801;SDS011;1916;51.798;12.246;2023-01-23T06:31:31;37.20;;;17.93;;
3801;SDS011;1916;51.798;12.246;2023-01-23T06:33:36;43.13;;;20.17;;
3801;SDS011;1916;51.798;12.246;2023-01-23T06:35:42;36.97;;;17.97;;
3801;SDS011;1916;51.798;12.246;2023-01-23T06:37:44;29.77;;;16.33;;
3801;SDS011;1916;51.798;12.246;2023-01-23T06:39:49;37.27;;;19.50;;
3801;SDS011;1916;51.798;12.246;2023-01-23T06:41:52;40.13;;;19.93;;
3801;SDS011;1916;51.798;12.246;2023-01-23T06:43:56;38.60;;;18.40;;
3801;SDS011;1916;51.798;12.246;2023-01-23T06:46:00;40.27;;;20.57;;
3801;SDS011;1916;51.798;12.246;2023-01-23T06:48:03;35.37;;;17.33;;
3801;SDS011;1916;51.798;12.246;2023-01-23T06:50:06;43.50;;;18.40;;
3801;SDS011;1916;51.798;12.246;2023-01-23T06:52:11;36.13;;;18.43;;
3801;SDS011;1916;51.798;12.246;2023-01-23T06:54:15;40.57;;;18.30;;
3801;SDS011;1916;51.798;12.246;2023-01-23T06:56:18;45.00;;;20.10;;
3801;SDS011;1916;51.798;12.246;2023-01-23T06:58:21;39.63;;;19.10;;
3801;SDS011;1916;51.798;12.246;2023-01-23T07:00:23;39.33;;;20.13;;
3801;SDS011;1916;51.798;12.246;2023-01-23T07:02:28;42.43;;;18.60;;
3801;SDS011;1916;51.798;12.246;2023-01-23T07:04:30;38.67;;;18.83;;
3801;SDS011;1916;51.798;12.246;2023-01-23T07:06:34;44.60;;;20.87;;
3801;SDS011;1916;51.798;12.246;2023-01-23T07:08:37;41.37;;;19.40;;
3801;SDS011;1916;51.798;12.246;2023-01-23T07:10:39;37.93;;;18.20;;
3801;SDS011;1916;51.798;12.246;2023-01-23T07:12:41;43.13;;;19.97;;
3801;SDS011;1916;51.798;12.246;2023-01-23T07:14:44;42.17;;;19.90;;
3801;SDS011;1916;51.798;12.246;2023-01-23T07:16:50;41.57;;;19.47;;
3801;SDS011;1916;51.798;12.246;2023-01-23T07:18:52;40.67;;;19.40;;
3801;SDS011;1916;51.798;12.246;2023-01-23T07:20:55;38.63;;;18.90;;
3801;SDS011;1916;51.798;12.246;2023-01-23T07:22:57;39.97;;;19.20;;
3801;SDS011;1916;51.798;12.246;2023-01-23T07:24:59;41.93;;;18.07;;
3801;SDS011;1916;51.798;12.246;2023-01-23T07:27:01;35.90;;;19.70;;
3801;SDS011;1916;51.798;12.246;2023-01-23T07:29:04;42.93;;;19.87;;
3801;SDS011;1916;51.798;12.246;2023-01-23T07:31:09;40.37;;;20.63;;
3801;SDS011;1916;51.798;12.246;2023-01-23T07:33:11;39.03;;;20.00;;
3801;SDS011;1916;51.798;12.246;2023-01-23T07:35:14;36.17;;;18.90;;
3801;SDS011;1916;51.798;12.246;2023-01-23T07:37:16;38.63;;;18.20;;
3801;SDS011;1916;51.798;12.246;2023-01-23T07:39:18;40.60;;;17.37;;
3801;SDS011;1916;51.798;12.246;2023-01-23T07:41:20;38.87;;;19.63;;
3801;SDS011;1916;51.798;12.246;2023-01-23T07:43:22;43.73;;;20.60;;
3801;SDS011;1916;51.798;12.246;2023-01-23T07:45:24;41.57;;;21.27;;
3801;SDS011;1916;51.798;12.246;2023-01-23T07:47:26;40.83;;;19.63;;
3801;SDS011;1916;51.798;12.246;2023-01-23T07:49:28;47.20;;;22.23;;
3801;SDS011;1916;51.798;12.246;2023-01-23T07:51:30;44.70;;;20.53;;
3801;SDS011;1916;51.798;12.246;2023-01-23T07:53:32;36.50;;;19.13;;
3801;SDS011;1916;51.798;12.246;2023-01-23T07:55:36;38.70;;;19.40;;
3801;SDS011;1916;51.798;12.246;2023-01-23T07:57:39;39.70;;;19.50;;
3801;SDS011;1916;51.798;12.246;2023-01-23T07:59:41;40.33;;;21.73;;
3801;SDS011;1916;51.798;12.246;2023-01-23T08:01:43;44.80;;;20.23;;
3801;SDS011;1916;51.798;12.246;2023-01-23T08:03:45;47.43;;;20.80;;
3801;SDS011;1916;51.798;12.246;2023-01-23T08:05:48;46.27;;;21.60;;
3801;SDS011;1916;51.798;12.246;2023-01-23T08:07:50;34.77;;;16.60;;
3801;SDS011;1916;51.798;12.246;2023-01-23T08:10:08;42.60;;;19.30;;
3801;SDS011;1916;51.798;12.246;2023-01-23T08:12:11;39.23;;;18.00;;
3801;SDS011;1916;51.798;12.246;2023-01-23T08:14:13;37.00;;;18.03;;
3801;SDS011;1916;51.798;12.246;2023-01-23T08:16:15;36.50;;;20.30;;
3801;SDS011;1916;51.798;12.246;2023-01-23T08:18:17;38.73;;;18.10;;
3801;SDS011;1916;51.798;12.246;2023-01-23T08:20:19;37.73;;;19.40;;
3801;SDS011;1916;51.798;12.246;2023-01-23T08:22:23;39.40;;;18.80;;
3801;SDS011;1916;51.798;12.246;2023-01-23T08:24:25;40.53;;;17.87;;
3801;SDS011;1916;51.798;12.246;2023-01-23T08:26:27;40.87;;;19.43;;
3801;SDS011;1916;51.798;12.246;2023-01-23T08:28:30;41.73;;;18.50;;
3801;SDS011;1916;51.798;12.246;2023-01-23T08:30:32;39.90;;;18.33;;
3801;SDS011;1916;51.798;12.246;2023-01-23T08:32:34;39.17;;;19.17;;
3801;SDS011;1916;51.798;12.246;2023-01-23T08:34:37;33.90;;;17.30;;
3801;SDS011;1916;51.798;12.246;2023-01-23T08:36:39;31.67;;;18.63;;
3801;SDS011;1916;51.798;12.246;2023-01-23T08:38:42;32.33;;;17.00;;
3801;SDS011;1916;51.798;12.246;2023-01-23T08:40:47;41.03;;;18.23;;
3801;SDS011;1916;51.798;12.246;2023-01-23T08:42:50;34.80;;;18.23;;
3801;SDS011;1916;51.798;12.246;2023-01-23T08:44:52;38.60;;;18.10;;
3801;SDS011;1916;51.798;12.246;2023-01-23T08:46:54;32.73;;;16.13;;
3801;SDS011;1916;51.798;12.246;2023-01-23T08:48:56;35.73;;;18.37;;
3801;SDS011;1916;51.798;12.246;2023-01-23T08:50:59;38.93;;;19.60;;
3801;SDS011;1916;51.798;12.246;2023-01-23T08:53:03;41.37;;;19.00;;
3801;SDS011;1916;51.798;12.246;2023-01-23T08:55:05;33.37;;;16.90;;
3801;SDS011;1916;51.798;12.246;2023-01-23T08:57:07;34.57;;;16.50;;
3801;SDS011;1916;51.798;12.246;2023-01-23T08:59:09;33.67;;;18.10;;
3801;SDS011;1916;51.798;12.246;2023-01-23T09:01:12;31.83;;;17.70;;
3801;SDS011;1916;51.798;12.246;2023-01-23T09:03:14;36.00;;;18.73;;
3801;SDS011;1916;51.798;12.246;2023-01-23T09:05:16;35.30;;;18.67;;
3801;SDS011;1916;51.798;12.246;2023-01-23T09:07:19;36.90;;;16.93;;
3801;SDS011;1916;51.798;12.246;2023-01-23T09:09:21;34.60;;;18.20;;
3801;SDS011;1916;51.798;12.246;2023-01-23T09:11:23;32.07;;;17.13;;
3801;SDS011;1916;51.798;12.246;2023-01-23T09:13:25;35.60;;;18.87;;
3801;SDS011;1916;51.798;12.246;2023-01-23T09:15:27;32.40;;;17.70;;
3801;SDS011;1916;51.798;12.246;2023-01-23T09:17:29;37.27;;;18.30;;
3801;SDS011;1916;51.798;12.246;2023-01-23T09:19:31;35.33;;;20.33;;
3801;SDS011;1916;51.798;12.246;2023-01-23T09:21:33;35.10;;;18.07;;
3801;SDS011;1916;51.798;12.246;2023-01-23T09:23:35;32.53;;;17.47;;
3801;SDS011;1916;51.798;12.246;2023-01-23T09:25:38;28.43;;;15.77;;
3801;SDS011;1916;51.798;12.246;2023-01-23T09:27:40;32.43;;;18.60;;
3801;SDS011;1916;51.798;12.246;2023-01-23T09:29:42;35.00;;;18.40;;
3801;SDS011;1916;51.798;12.246;2023-01-23T09:31:43;36.83;;;17.40;;
3801;SDS011;1916;51.798;12.246;2023-01-23T09:33:46;34.60;;;18.43;;
3801;SDS011;1916;51.798;12.246;2023-01-23T09:35:52;36.70;;;19.03;;
3801;SDS011;1916;51.798;12.246;2023-01-23T09:37:54;33.43;;;18.93;;
3801;SDS011;1916;51.798;12.246;2023-01-23T09:40:02;30.50;;;16.83;;
3801;SDS011;1916;51.798;12.246;2023-01-23T09:42:04;33.00;;;17.77;;
3801;SDS011;1916;51.798;12.246;2023-01-23T09:44:19;35.70;;;16.20;;
3801;SDS011;1916;51.798;12.246;2023-01-23T09:46:29;37.53;;;18.40;;
3801;SDS011;1916;51.798;12.246;2023-01-23T09:48:47;35.40;;;19.00;;
3801;SDS011;1916;51.798;12.246;2023-01-23T09:50:52;33.20;;;17.53;;
3801;SDS011;1916;51.798;12.246;2023-01-23T09:53:15;33.40;;;18.07;;
3801;SDS011;1916;51.798;12.246;2023-01-23T09:57:42;35.50;;;17.70;;
3801;SDS011;1916;51.798;12.246;2023-01-23T10:00:14;37.77;;;18.00;;
3801;SDS011;1916;51.798;12.246;2023-01-23T10:02:21;32.17;;;16.70;;
3801;SDS011;1916;51.798;12.246;2023-01-23T10:04:27;35.73;;;18.17;;
3801;SDS011;1916;51.798;12.246;2023-01-23T10:06:31;36.00;;;20.23;;
3801;SDS011;1916;51.798;12.246;2023-01-23T10:15:32;54.17;;;26.60;;
3801;SDS011;1916;51.798;12.246;2023-01-23T10:17:53;46.57;;;23.47;;
3801;SDS011;1916;51.798;12.246;2023-01-23T10:20:10;42.83;;;19.43;;
3801;SDS011;1916;51.798;12.246;2023-01-23T10:22:38;33.10;;;17.10;;
3801;SDS011;1916;51.798;12.246;2023-01-23T10:24:48;39.70;;;20.43;;
3801;SDS011;1916;51.798;12.246;2023-01-23T10:26:52;52.77;;;23.80;;
3801;SDS011;1916;51.798;12.246;2023-01-23T10:28:57;63.60;;;34.07;;
3801;SDS011;1916;51.798;12.246;2023-01-23T10:31:09;51.23;;;25.93;;
3801;SDS011;1916;51.798;12.246;2023-01-23T10:33:14;47.50;;;23.87;;
3801;SDS011;1916;51.798;12.246;2023-01-23T10:35:28;47.60;;;23.60;;
3801;SDS011;1916;51.798;12.246;2023-01-23T10:39:48;56.30;;;25.30;;
3801;SDS011;1916;51.798;12.246;2023-01-23T10:41:53;69.67;;;29.40;;
3801;SDS011;1916;51.798;12.246;2023-01-23T10:44:16;63.60;;;27.03;;
3801;SDS011;1916;51.798;12.246;2023-01-23T10:46:20;64.23;;;28.40;;
3801;SDS011;1916;51.798;12.246;2023-01-23T10:48:37;55.00;;;24.90;;
3801;SDS011;1916;51.798;12.246;2023-01-23T10:50:40;60.07;;;26.37;;
3801;SDS011;1916;51.798;12.246;2023-01-23T10:52:45;64.23;;;26.40;;
3801;SDS011;1916;51.798;12.246;2023-01-23T10:54:47;56.53;;;26.97;;
3801;SDS011;1916;51.798;12.246;2023-01-23T10:56:56;61.73;;;26.13;;
3801;SDS011;1916;51.798;12.246;2023-01-23T10:59:04;58.63;;;24.53;;
3801;SDS011;1916;51.798;12.246;2023-01-23T11:01:18;67.20;;;25.97;;
3801;SDS011;1916;51.798;12.246;2023-01-23T11:03:29;60.00;;;23.80;;
3801;SDS011;1916;51.798;12.246;2023-01-23T11:05:37;68.53;;;25.07;;
3801;SDS011;1916;51.798;12.246;2023-01-23T11:07:53;50.60;;;22.90;;
3801;SDS011;1916;51.798;12.246;2023-01-23T11:12:00;67.53;;;25.93;;
3801;SDS011;1916;51.798;12.246;2023-01-23T11:14:08;58.60;;;26.27;;
3801;SDS011;1916;51.798;12.246;2023-01-23T11:16:13;64.43;;;30.50;;
3801;SDS011;1916;51.798;12.246;2023-01-23T11:19:18;66.00;;;28.73;;
3801;SDS011;1916;51.798;12.246;2023-01-23T11:20:55;69.00;;;29.57;;
3801;SDS011;1916;51.798;12.246;2023-01-23T11:25:43;66.33;;;30.33;;
3801;SDS011;1916;51.798;12.246;2023-01-23T11:27:37;69.50;;;30.50;;
3801;SDS011;1916;51.798;12.246;2023-01-23T11:29:54;65.90;;;25.87;;
3801;SDS011;1916;51.798;12.246;2023-01-23T11:32:00;63.10;;;24.77;;
3801;SDS011;1916;51.798;12.246;2023-01-23T11:34:12;64.10;;;27.00;;
3801;SDS011;1916;51.798;12.246;2023-01-23T11:38:21;57.80;;;22.50;;
3801;SDS011;1916;51.798;12.246;2023-01-23T11:40:31;57.90;;;24.57;;
3801;SDS011;1916;51.798;12.246;2023-01-23T11:42:34;56.93;;;25.37;;
3801;SDS011;1916;51.798;12.246;2023-01-23T11:44:41;61.33;;;25.93;;
3801;SDS011;1916;51.798;12.246;2023-01-23T11:51:11;47.27;;;22.00;;
3801;SDS011;1916;51.798;12.246;2023-01-23T12:00:43;52.60;;;22.90;;
3801;SDS011;1916;51.798;12.246;2023-01-23T12:07:47;50.43;;;22.47;;
3801;SDS011;1916;51.798;12.246;2023-01-23T12:10:02;61.97;;;26.30;;
3801;SDS011;1916;51.798;12.246;2023-01-23T12:14:47;50.83;;;23.23;;
3801;SDS011;1916;51.798;12.246;2023-01-23T12:24:24;50.53;;;22.70;;
3801;SDS011;1916;51.798;12.246;2023-01-23T12:27:33;53.80;;;23.43;;
3801;SDS011;1916;51.798;12.246;2023-01-23T12:29:36;53.00;;;20.53;;
3801;SDS011;1916;51.798;12.246;2023-01-23T12:41:48;49.30;;;22.00;;
3801;SDS011;1916;51.798;12.246;2023-01-23T12:44:04;49.67;;;20.53;;
3801;SDS011;1916;51.798;12.246;2023-01-23T12:46:30;42.13;;;20.97;;
3801;SDS011;1916;51.798;12.246;2023-01-23T12:48:42;40.40;;;19.83;;
3801;SDS011;1916;51.798;12.246;2023-01-23T12:50:49;42.60;;;20.90;;
3801;SDS011;1916;51.798;12.246;2023-01-23T12:52:56;48.00;;;22.30;;
3801;SDS011;1916;51.798;12.246;2023-01-23T12:57:47;44.50;;;21.53;;
3801;SDS011;1916;51.798;12.246;2023-01-23T13:00:26;52.60;;;23.67;;
3801;SDS011;1916;51.798;12.246;2023-01-23T13:04:45;44.63;;;20.90;;
3801;SDS011;1916;51.798;12.246;2023-01-23T13:11:44;46.77;;;22.13;;
3801;SDS011;1916;51.798;12.246;2023-01-23T13:13:51;39.50;;;21.27;;
3801;SDS011;1916;51.798;12.246;2023-01-23T13:16:00;52.03;;;24.00;;
3801;SDS011;1916;51.798;12.246;2023-01-23T13:18:24;40.33;;;22.20;;
3801;SDS011;1916;51.798;12.246;2023-01-23T13:25:24;47.33;;;20.20;;
3801;SDS011;1916;51.798;12.246;2023-01-23T13:29:51;43.87;;;21.43;;
3801;SDS011;1916;51.798;12.246;2023-01-23T13:31:57;44.60;;;20.50;;
3801;SDS011;1916;51.798;12.246;2023-01-23T13:36:23;47.87;;;23.77;;
3801;SDS011;1916;51.798;12.246;2023-01-23T13:38:28;45.00;;;21.47;;
3801;SDS011;1916;51.798;12.246;2023-01-23T13:40:38;51.63;;;21.87;;
3801;SDS011;1916;51.798;12.246;2023-01-23T13:43:19;46.30;;;22.30;;